Terminal Aerodrome Forecast
Issued by NWS

Home | Current Version | Previous Version | Text Only | Print | Product List | Glossary On
Versions: 1 2 3 4 5 6 7 8 9 10 11 12
000
FTUS45 KRIW 211100
TAFCPR
TAF
KCPR 211123Z 2112/2212 22010KT P6SM FEW080 SCT120
     FM211600 23016G24KT P6SM SCT080 BKN150
     FM220100 32010KT P6SM VCSH BKN080
     FM220700 03007KT P6SM SCT110=

USA.gov is the U.S. government's official web portal to all federal, state and local government web resources and services.